HEBA/HBE METAR and TAF weather

Enter ICAO airport designator
Station Type Date Time Source
HEBA METAR 2018/07/21 03:00 UTC NOAA

HEBA 210300Z 32005KT CAVOK 23/20 Q1009 NOSIG


Station Type Date Time Source
HEBA Decoded METAR 2018/07/21 03:00 UTC NOAA

Alexandria Borg El Arab, Egypt (HEBA) 31-31N 030-10E
Jul 20, 2018 - 11:00 PM EDT / 2018.07.21 0300 UTC
Wind: from the NW (320 degrees) at 6 MPH (5 KT):0
Visibility: greater than 7 mile(s):0
Temperature: 73 F (23 C)
Dew Point: 68 F (20 C)
Relative Humidity: 83%
Pressure (altimeter): 29.80 in. Hg (1009 hPa)
ob: HEBA 210300Z 32005KT CAVOK 23/20 Q1009 NOSIG
cycle: 3

Station Type Date Time Source
HEBA TAF 2018/07/20 18:21 UTC NOAA

TAF HEBA 201700Z 2018/2124 32013KT CAVOK


Example: see airport list